createdAt,value
2018-02-18T00:02:24.381Z,45.43
2018-02-18T00:04:52.129Z,45.97
2018-02-18T00:07:20.690Z,44.33
2018-02-18T00:09:48.444Z,45.10
2018-02-18T00:12:16.186Z,43.97
2018-02-18T00:28:06.991Z,44.83
2018-02-18T00:30:35.511Z,45.37
2018-02-18T00:33:03.274Z,47.37
2018-02-18T00:35:31.024Z,47.90
2018-02-18T00:37:58.748Z,48.70
2018-02-18T00:40:27.015Z,49.50
2018-02-18T00:42:54.798Z,48.93
2018-02-18T00:45:22.979Z,47.60
2018-02-18T00:47:51.150Z,47.63
2018-02-18T00:50:18.916Z,48.30
2018-02-18T00:52:47.081Z,49.80
2018-02-18T00:55:14.887Z,49.73
2018-02-18T00:57:43.382Z,50.60
2018-02-18T01:00:13.472Z,47.87
2018-02-18T01:02:42.039Z,46.47
2018-02-18T01:05:10.228Z,49.90
2018-02-18T01:07:39.975Z,48.20
2018-02-18T01:10:08.188Z,46.70
2018-02-18T01:12:36.405Z,46.00
2018-02-18T01:15:04.196Z,45.27
2018-02-18T01:17:32.712Z,49.57
2018-02-18T01:20:00.511Z,47.57
2018-02-18T01:22:28.248Z,50.00
2018-02-18T01:24:56.007Z,46.90
2018-02-18T01:27:23.820Z,48.87
2018-02-18T01:29:52.393Z,47.00
2018-02-18T01:32:20.934Z,48.23
2018-02-18T01:34:48.714Z,50.17
2018-02-18T01:37:16.927Z,47.40
2018-02-18T01:39:45.145Z,45.70
2018-02-18T01:42:13.658Z,45.60
2018-02-18T01:44:42.215Z,47.47
2018-02-18T01:47:09.936Z,45.13
2018-02-18T01:49:37.676Z,47.90
2018-02-18T01:52:06.183Z,48.27
2018-02-18T01:54:33.997Z,45.50
2018-02-18T01:57:02.134Z,45.63
2018-02-18T01:59:29.893Z,45.57
2018-02-18T02:01:57.704Z,45.83
2018-02-18T02:04:26.211Z,44.57
2018-02-18T02:06:53.977Z,47.03
2018-02-18T02:09:21.732Z,44.70
2018-02-18T02:11:49.515Z,42.57
2018-02-18T02:14:17.687Z,46.17
2018-02-18T02:16:45.430Z,45.53
2018-02-18T02:19:13.687Z,43.80
2018-02-18T02:21:41.471Z,44.20
2018-02-18T02:24:09.203Z,42.90
2018-02-18T02:26:37.414Z,44.20
2018-02-18T02:29:05.151Z,42.93
2018-02-18T02:31:32.953Z,43.30
2018-02-18T02:34:00.744Z,40.70
2018-02-18T02:36:29.335Z,42.07
2018-02-18T02:38:57.103Z,43.57
2018-02-18T02:41:24.840Z,41.30
2018-02-18T02:43:52.579Z,41.20
2018-02-18T02:46:20.304Z,41.37
2018-02-18T02:48:48.053Z,44.80
2018-02-18T02:51:16.231Z,44.00
2018-02-18T02:53:43.979Z,45.20
2018-02-18T02:56:11.711Z,42.97
2018-02-18T02:58:39.531Z,44.63
2018-02-18T03:01:07.274Z,43.10
2018-02-18T03:03:35.049Z,42.00
2018-02-18T03:06:02.779Z,46.10
2018-02-18T03:08:30.489Z,43.87
2018-02-18T03:10:58.228Z,43.07
2018-02-18T03:13:26.000Z,44.43
2018-02-18T03:15:54.494Z,46.87
2018-02-18T03:18:22.287Z,43.20
2018-02-18T03:20:50.432Z,43.50
2018-02-18T03:23:18.210Z,46.33
2018-02-18T03:25:45.943Z,47.50
2018-02-18T03:28:13.747Z,43.37
2018-02-18T03:30:42.251Z,48.63
2018-02-18T03:33:10.003Z,46.67
2018-02-18T03:35:38.125Z,47.13
2018-02-18T03:38:05.904Z,46.90
2018-02-18T03:40:33.713Z,52.20
2018-02-18T03:43:01.461Z,48.97
2018-02-18T03:45:29.250Z,47.60
2018-02-18T03:47:57.758Z,50.70
2018-02-18T03:50:25.527Z,49.50
2018-02-18T03:52:53.302Z,50.13
2018-02-18T03:55:21.421Z,47.70
2018-02-18T03:57:49.908Z,49.17
2018-02-18T04:00:17.687Z,49.07
2018-02-18T04:02:45.446Z,49.67
2018-02-18T04:05:13.176Z,48.33
2018-02-18T04:07:40.982Z,48.33
2018-02-18T04:10:10.730Z,48.83
2018-02-18T04:12:38.541Z,46.87
2018-02-18T04:15:07.126Z,48.70
2018-02-18T04:17:35.295Z,46.10
2018-02-18T04:20:04.216Z,46.20
2018-02-18T04:22:32.038Z,44.93
2018-02-18T04:24:59.780Z,47.20
2018-02-18T04:27:28.298Z,51.40
2018-02-18T04:29:56.053Z,46.30
2018-02-18T04:32:23.845Z,44.90
2018-02-18T04:34:52.352Z,47.67
2018-02-18T04:37:20.203Z,47.00
2018-02-18T04:39:48.753Z,44.77
2018-02-18T04:42:16.540Z,48.70
2018-02-18T04:44:44.326Z,44.73
2018-02-18T04:47:12.061Z,43.60
2018-02-18T04:49:39.868Z,43.10
2018-02-18T04:52:07.612Z,43.63
2018-02-18T04:54:35.339Z,45.03
2018-02-18T04:57:03.068Z,44.60
2018-02-18T04:59:30.782Z,43.30
2018-02-18T05:01:58.612Z,42.80
2018-02-18T05:04:26.340Z,46.30
2018-02-18T05:06:54.073Z,44.53
2018-02-18T05:09:21.845Z,41.80
2018-02-18T05:11:49.632Z,41.80
2018-02-18T05:14:17.372Z,42.77
2018-02-18T05:16:45.170Z,41.80
2018-02-18T05:19:12.919Z,40.87
2018-02-18T05:21:40.652Z,42.53
2018-02-18T05:24:08.444Z,42.20
2018-02-18T05:26:36.181Z,44.70
2018-02-18T05:29:04.009Z,41.50
2018-02-18T05:31:31.759Z,41.57
2018-02-18T05:33:59.512Z,43.30
2018-02-18T05:36:28.590Z,40.90
2018-02-18T05:38:56.794Z,40.10
2018-02-18T05:41:24.583Z,42.30
2018-02-18T05:43:52.426Z,39.53
2018-02-18T05:46:20.184Z,39.63
2018-02-18T05:48:47.921Z,38.90
2018-02-18T05:51:15.660Z,40.57
2018-02-18T05:53:44.215Z,38.67
2018-02-18T05:56:11.962Z,37.83
2018-02-18T05:58:40.489Z,36.53
2018-02-18T06:01:08.717Z,36.97
2018-02-18T06:03:36.989Z,36.97
2018-02-18T06:06:04.761Z,35.50
2018-02-18T06:08:32.549Z,35.87
2018-02-18T06:11:00.281Z,36.30
2018-02-18T06:13:28.421Z,34.23
2018-02-18T06:15:56.239Z,33.83
2018-02-18T06:18:24.025Z,35.13
2018-02-18T06:20:51.822Z,37.10
2018-02-18T06:23:19.609Z,32.60
2018-02-18T06:25:47.750Z,33.23
2018-02-18T06:28:15.487Z,35.50
2018-02-18T06:30:44.412Z,32.00
2018-02-18T06:33:12.903Z,33.40
2018-02-18T06:35:41.478Z,32.20
2018-02-18T06:38:09.272Z,32.00
2018-02-18T06:40:37.831Z,31.93
2018-02-18T06:43:05.551Z,31.47
2018-02-18T06:45:33.391Z,33.20
2018-02-18T06:48:03.294Z,32.13
2018-02-18T06:50:31.020Z,32.23
2018-02-18T06:52:59.196Z,34.30
2018-02-18T06:55:26.946Z,31.77
2018-02-18T06:57:54.714Z,32.03
2018-02-18T07:00:22.909Z,33.50
2018-02-18T07:02:50.653Z,32.03
2018-02-18T07:05:18.475Z,31.83
2018-02-18T07:07:46.211Z,32.90
2018-02-18T07:10:14.369Z,31.60
2018-02-18T07:12:42.107Z,31.03
2018-02-18T07:15:10.301Z,32.13
2018-02-18T07:17:38.897Z,30.90
2018-02-18T07:20:06.692Z,32.37
2018-02-18T07:22:34.549Z,29.57
2018-02-18T07:25:03.044Z,31.07
2018-02-18T07:27:32.117Z,28.73
2018-02-18T07:30:00.295Z,30.80
2018-02-18T07:32:28.040Z,30.20
2018-02-18T07:34:56.691Z,30.30
2018-02-18T07:37:24.567Z,29.20
2018-02-18T07:39:53.203Z,30.77
2018-02-18T07:42:20.935Z,29.97
2018-02-18T07:44:48.658Z,32.43
2018-02-18T07:47:16.497Z,29.90
2018-02-18T07:49:45.010Z,30.77
2018-02-18T07:52:13.161Z,28.80
2018-02-18T07:54:40.930Z,29.13
2018-02-18T07:57:08.676Z,29.13
2018-02-18T07:59:36.404Z,27.83
2018-02-18T08:02:04.199Z,28.00
2018-02-18T08:04:33.131Z,26.40
2018-02-18T08:07:00.933Z,25.87
2018-02-18T08:09:28.713Z,28.20
2018-02-18T08:11:56.861Z,26.63
2018-02-18T08:14:26.025Z,26.50
2018-02-18T08:16:54.206Z,28.57
2018-02-18T08:19:22.393Z,27.50
2018-02-18T08:21:53.532Z,26.30
2018-02-18T08:24:22.177Z,28.80
2018-02-18T08:26:50.856Z,27.03
2018-02-18T08:29:18.739Z,26.00
2018-02-18T08:31:48.149Z,26.57
2018-02-18T08:34:15.888Z,28.00
2018-02-18T08:36:43.625Z,25.17
2018-02-18T08:39:11.771Z,26.10
2018-02-18T08:41:39.958Z,25.67
2018-02-18T08:44:07.800Z,25.53
2018-02-18T08:46:36.323Z,26.97
2018-02-18T08:49:04.848Z,27.10
2018-02-18T08:51:33.418Z,25.40
2018-02-18T08:54:01.284Z,24.47
2018-02-18T08:56:29.837Z,26.10
2018-02-18T08:58:58.936Z,23.90
2018-02-18T09:01:28.247Z,26.00
2018-02-18T09:03:57.109Z,23.97
2018-02-18T09:06:25.242Z,26.70
2018-02-18T09:08:53.806Z,24.37
2018-02-18T09:11:22.315Z,25.30
2018-02-18T09:13:51.398Z,23.47
2018-02-18T09:16:20.638Z,25.57
2018-02-18T09:18:48.440Z,26.70
2018-02-18T09:21:16.221Z,25.50
2018-02-18T09:23:44.014Z,24.97
2018-02-18T09:26:12.565Z,26.17
2018-02-18T09:28:40.407Z,26.73
2018-02-18T09:31:09.502Z,27.67
2018-02-18T09:33:37.269Z,27.63
2018-02-18T09:36:05.169Z,26.40
2018-02-18T09:38:33.770Z,26.97
2018-02-18T09:41:01.506Z,26.97
2018-02-18T09:43:30.100Z,28.10
2018-02-18T09:46:00.449Z,25.97
2018-02-18T09:48:29.247Z,26.07
2018-02-18T09:50:58.399Z,28.20
2018-02-18T09:53:26.253Z,26.97
2018-02-18T09:55:54.093Z,28.47
2018-02-18T09:58:23.030Z,27.10
2018-02-18T10:00:50.825Z,25.47
2018-02-18T10:03:18.639Z,27.70
2018-02-18T10:05:47.225Z,24.67
2018-02-18T10:08:14.987Z,26.60
2018-02-18T10:13:53.057Z,27.37
2018-02-18T10:16:21.274Z,27.43
2018-02-18T10:18:50.131Z,25.87
2018-02-18T10:21:17.944Z,27.97
2018-02-18T10:23:46.196Z,27.20
2018-02-18T10:26:15.063Z,27.43
2018-02-18T10:28:43.508Z,26.43
2018-02-18T10:31:12.083Z,28.13
2018-02-18T10:33:40.518Z,26.83
2018-02-18T10:36:08.438Z,26.73
2018-02-18T10:38:36.632Z,27.83
2018-02-18T10:41:05.514Z,29.03
2018-02-18T10:43:33.319Z,27.93
2018-02-18T10:46:01.119Z,28.90
2018-02-18T10:48:28.958Z,31.27
2018-02-18T10:50:56.717Z,29.33
2018-02-18T10:53:24.450Z,28.80
2018-02-18T10:55:52.775Z,29.40
2018-02-18T10:58:20.802Z,29.13
2018-02-18T11:00:48.630Z,26.03
2018-02-18T11:03:17.215Z,27.10
2018-02-18T11:05:45.203Z,27.20
2018-02-18T11:08:13.096Z,27.10
2018-02-18T11:10:40.822Z,27.57
2018-02-18T11:13:09.003Z,26.87
2018-02-18T11:15:36.804Z,27.40
2018-02-18T11:18:05.328Z,27.60
2018-02-18T11:20:33.885Z,25.80
2018-02-18T11:23:02.444Z,29.10
2018-02-18T11:25:30.188Z,29.53
2018-02-18T11:27:58.980Z,28.60
2018-02-18T11:30:27.209Z,26.30
2018-02-18T11:32:55.622Z,29.70
2018-02-18T11:35:23.372Z,29.40
2018-02-18T11:37:51.117Z,29.03
2018-02-18T11:40:19.271Z,30.27
2018-02-18T11:42:47.048Z,29.70
2018-02-18T11:45:14.831Z,29.30
2018-02-18T11:47:43.428Z,28.87
2018-02-18T11:50:12.034Z,31.03
2018-02-18T11:52:39.784Z,29.87
2018-02-18T11:55:07.927Z,30.57
2018-02-18T11:57:35.669Z,28.83
2018-02-18T12:00:04.857Z,29.47
2018-02-18T12:02:32.592Z,29.30
2018-02-18T12:05:00.391Z,30.77
2018-02-18T12:07:28.139Z,28.13
2018-02-18T12:09:55.934Z,28.80
2018-02-18T12:12:23.741Z,28.43
2018-02-18T12:14:51.908Z,29.17
2018-02-18T12:17:19.699Z,28.60
2018-02-18T12:19:47.925Z,28.37
2018-02-18T12:22:15.769Z,28.90
2018-02-18T12:24:43.554Z,28.50
2018-02-18T12:27:11.346Z,28.47
2018-02-18T12:29:40.164Z,29.23
2018-02-18T12:32:07.971Z,29.20
2018-02-18T12:34:35.700Z,30.20
2018-02-18T12:37:04.606Z,32.57
2018-02-18T12:39:32.527Z,28.90
2018-02-18T12:42:00.680Z,27.63
2018-02-18T12:44:28.425Z,26.20
2018-02-18T12:49:36.310Z,28.27
2018-02-18T12:52:04.867Z,28.23
2018-02-18T12:54:33.419Z,28.80
2018-02-18T12:57:01.139Z,28.40
2018-02-18T12:59:28.872Z,28.00
2018-02-18T13:01:57.101Z,26.80
2018-02-18T13:04:26.028Z,28.40
2018-02-18T13:06:54.286Z,27.83
2018-02-18T13:09:22.168Z,27.83
2018-02-18T13:11:49.901Z,28.47
2018-02-18T13:14:18.763Z,26.70
2018-02-18T13:16:46.661Z,26.37
2018-02-18T13:19:15.143Z,26.43
2018-02-18T13:21:42.919Z,27.20
2018-02-18T13:24:11.415Z,26.40
2018-02-18T13:26:39.186Z,27.27
2018-02-18T13:29:07.392Z,26.50
2018-02-18T13:31:44.143Z,27.07
2018-02-18T13:34:22.827Z,26.07
2018-02-18T13:36:51.031Z,26.10
2018-02-18T13:39:19.589Z,26.97
2018-02-18T13:41:47.392Z,24.70
2018-02-18T13:44:15.272Z,26.43
2018-02-18T13:46:43.871Z,24.73
2018-02-18T13:49:12.178Z,23.40
2018-02-18T13:51:40.046Z,23.40
2018-02-18T13:54:07.904Z,22.63
2018-02-18T13:56:35.705Z,26.33
2018-02-18T13:59:03.476Z,24.23
2018-02-18T14:01:32.067Z,22.70
2018-02-18T14:04:00.728Z,22.50
2018-02-18T14:06:29.337Z,22.47
2018-02-18T14:08:57.196Z,22.53
2018-02-18T14:11:25.012Z,24.13
2018-02-18T14:13:52.764Z,23.30
2018-02-18T14:16:20.551Z,24.20
2018-02-18T14:18:48.350Z,22.00
2018-02-18T14:21:16.568Z,17.40
2018-02-18T14:23:44.766Z,19.03
2018-02-18T14:26:13.360Z,20.47
2018-02-18T14:28:41.196Z,19.40
2018-02-18T14:31:09.785Z,17.43
2018-02-18T14:33:38.440Z,14.97
2018-02-18T14:36:06.201Z,15.93
2018-02-18T14:38:34.043Z,15.97
2018-02-18T14:41:01.837Z,16.43
2018-02-18T14:43:41.644Z,16.73
2018-02-18T14:46:22.004Z,16.47
2018-02-18T14:49:02.057Z,16.20
2018-02-18T14:51:42.076Z,13.07
2018-02-18T14:54:21.620Z,8.73
2018-02-18T15:10:10.295Z,1.50
2018-02-18T15:12:39.012Z,1.20
2018-02-18T15:15:06.801Z,1.70
2018-02-18T15:17:34.584Z,1.30
2018-02-18T15:20:03.110Z,1.30
2018-02-18T15:22:32.534Z,1.10
2018-02-18T15:25:00.500Z,2.87
2018-02-18T15:27:29.555Z,1.70
2018-02-18T15:29:58.714Z,13.67
2018-02-18T15:32:28.019Z,13.63
2018-02-18T15:34:57.600Z,12.23
2018-02-18T15:37:26.542Z,11.70
2018-02-18T15:39:54.868Z,12.97
2018-02-18T15:42:22.711Z,9.87
2018-02-18T15:44:50.482Z,8.80
2018-02-18T15:47:18.611Z,5.47
2018-02-18T15:49:47.555Z,7.50
2018-02-18T15:52:15.964Z,6.50
2018-02-18T15:54:44.787Z,7.03
2018-02-18T15:57:13.580Z,6.10
2018-02-18T15:59:43.522Z,6.80
2018-02-18T16:02:13.327Z,7.70
2018-02-18T16:04:41.218Z,5.80
2018-02-18T16:07:09.082Z,3.47
2018-02-18T16:09:37.535Z,2.10
2018-02-18T16:12:06.110Z,2.27
2018-02-18T16:14:36.286Z,2.00
2018-02-18T16:17:05.629Z,1.80
2018-02-18T16:19:33.891Z,2.77
2018-02-18T16:22:02.834Z,1.40
2018-02-18T16:24:31.983Z,1.50
2018-02-18T16:26:59.768Z,1.73
2018-02-18T16:29:27.615Z,1.20
2018-02-18T16:31:55.756Z,1.40
2018-02-18T16:34:24.303Z,1.80
2018-02-18T16:36:53.611Z,1.23
2018-02-18T16:39:21.340Z,1.27
2018-02-18T16:41:49.912Z,1.60
2018-02-18T16:44:18.505Z,1.37
2018-02-18T16:46:47.060Z,2.13
2018-02-18T16:49:14.850Z,1.50
2018-02-18T16:51:44.113Z,1.80
2018-02-18T16:54:12.035Z,2.47
2018-02-18T16:56:40.159Z,1.83
2018-02-18T16:59:08.879Z,1.77
2018-02-18T17:01:38.486Z,1.50
2018-02-18T17:04:07.229Z,1.87
2018-02-18T17:06:36.690Z,1.73
2018-02-18T17:09:05.167Z,2.03
2018-02-18T17:11:33.184Z,1.67
2018-02-18T17:14:02.229Z,1.73
2018-02-18T17:16:32.206Z,3.43
2018-02-18T17:19:09.901Z,1.70
2018-02-18T17:21:57.411Z,1.80
2018-02-18T17:24:43.211Z,1.50
2018-02-18T17:29:47.293Z,1.90
2018-02-18T17:32:15.996Z,1.47
2018-02-18T17:34:46.947Z,1.80
2018-02-18T17:37:15.947Z,1.60
2018-02-18T17:39:43.844Z,1.37
2018-02-18T17:42:13.092Z,1.87
2018-02-18T17:44:42.076Z,2.10
2018-02-18T17:47:09.798Z,1.70
2018-02-18T17:49:37.590Z,1.80
2018-02-18T17:54:55.500Z,1.90
2018-02-18T17:57:24.207Z,1.87
2018-02-18T17:59:54.372Z,2.30
2018-02-18T18:02:27.375Z,1.27
2018-02-18T18:08:20.584Z,1.90
2018-02-18T18:10:50.453Z,1.97
2018-02-18T18:13:22.347Z,2.23
2018-02-18T18:15:53.088Z,2.20
2018-02-18T18:28:12.930Z,2.63
2018-02-18T18:30:44.086Z,2.27
2018-02-18T18:33:13.407Z,2.37
2018-02-18T18:35:43.914Z,2.70
2018-02-18T18:38:13.215Z,2.40
2018-02-18T18:40:52.767Z,2.40
2018-02-18T18:46:26.291Z,6.03
2018-02-18T18:48:56.208Z,2.23
2018-02-18T18:51:29.939Z,2.67
2018-02-18T18:53:59.989Z,2.60
2018-02-18T18:59:05.668Z,2.50
2018-02-18T19:01:33.818Z,2.40
2018-02-18T19:04:02.785Z,2.90
2018-02-18T19:06:30.621Z,2.30
2018-02-18T19:08:58.753Z,2.40
2018-02-18T19:11:27.799Z,1.80
2018-02-18T19:14:14.254Z,1.63
2018-02-18T19:16:42.562Z,1.90
2018-02-18T19:19:21.129Z,2.00
2018-02-18T19:21:58.066Z,2.03
2018-02-18T19:24:27.122Z,2.23
2018-02-18T19:26:57.944Z,2.17
2018-02-18T19:29:25.724Z,2.30
2018-02-18T19:31:53.535Z,2.30
2018-02-18T19:34:21.481Z,2.40
2018-02-18T19:36:58.531Z,2.67
2018-02-18T19:39:26.436Z,4.47
2018-02-18T19:41:54.644Z,1.90
2018-02-18T19:44:23.569Z,2.30
2018-02-18T19:47:09.561Z,3.17
2018-02-18T19:49:41.479Z,2.20
2018-02-18T19:55:32.378Z,2.87
2018-02-18T19:58:04.598Z,2.77
2018-02-18T20:00:35.017Z,2.53
2018-02-18T20:03:25.729Z,3.93
2018-02-18T20:05:59.173Z,2.20
2018-02-18T20:08:40.534Z,2.30
2018-02-18T20:11:15.564Z,2.33
2018-02-18T20:13:48.138Z,2.87
2018-02-18T20:18:58.681Z,2.13
2018-02-18T20:24:12.127Z,2.30
2018-02-18T20:27:02.762Z,2.10
2018-02-18T20:29:31.844Z,2.00
2018-02-18T20:32:01.768Z,1.83
2018-02-18T20:34:33.893Z,2.17
2018-02-18T20:37:11.069Z,1.67
2018-02-18T20:39:39.161Z,2.10
2018-02-18T20:42:12.482Z,3.03
2018-02-18T20:44:40.818Z,1.83
2018-02-18T20:47:08.625Z,1.83
2018-02-18T20:49:38.166Z,1.93
2018-02-18T20:52:06.000Z,1.90
2018-02-18T20:54:33.898Z,1.60
2018-02-18T20:57:03.971Z,2.20
2018-02-18T20:59:34.859Z,2.37
2018-02-18T21:02:02.901Z,2.47
2018-02-18T21:04:30.802Z,1.50
2018-02-18T21:06:59.557Z,2.00
2018-02-18T21:09:31.409Z,2.50
2018-02-18T21:11:59.328Z,5.70
2018-02-18T21:14:29.616Z,3.10
2018-02-18T21:16:57.679Z,3.27
2018-02-18T21:19:26.345Z,3.43
2018-02-18T21:21:54.253Z,2.50
2018-02-18T21:24:24.622Z,3.00
2018-02-18T21:26:52.435Z,3.53
2018-02-18T21:29:20.297Z,3.60
2018-02-18T21:31:48.252Z,4.10
2018-02-18T21:34:16.130Z,3.53
2018-02-18T21:36:43.969Z,3.70
2018-02-18T21:39:11.774Z,4.13
2018-02-18T21:41:39.552Z,3.50
2018-02-18T21:44:07.360Z,4.40
2018-02-18T21:46:35.182Z,4.27
2018-02-18T21:49:03.042Z,4.23
2018-02-18T21:51:30.882Z,4.03
2018-02-18T21:53:58.722Z,3.23
2018-02-18T21:56:26.593Z,2.87
2018-02-18T21:58:54.548Z,3.40
2018-02-18T22:01:22.368Z,3.57
2018-02-18T22:03:51.581Z,3.13
2018-02-18T22:06:19.582Z,3.53
2018-02-18T22:08:48.232Z,3.67
2018-02-18T22:11:16.142Z,3.60
2018-02-18T22:13:46.241Z,3.67
2018-02-18T22:16:14.135Z,3.47
2018-02-18T22:18:42.092Z,4.07
2018-02-18T22:21:10.057Z,3.90
2018-02-18T22:23:37.864Z,3.57
2018-02-18T22:26:17.600Z,4.57
2018-02-18T22:28:46.406Z,4.50
2018-02-18T22:31:15.479Z,5.23
2018-02-18T22:33:51.340Z,6.00
2018-02-18T22:36:20.554Z,5.43
2018-02-18T22:38:49.202Z,5.50
2018-02-18T22:41:17.150Z,5.77
2018-02-18T22:43:45.134Z,3.90
2018-02-18T22:46:16.564Z,4.90
2018-02-18T22:48:47.635Z,4.53
2018-02-18T22:51:16.308Z,5.23
2018-02-18T22:53:48.297Z,4.30
2018-02-18T22:56:18.795Z,5.23
2018-02-18T22:58:46.836Z,4.17
2018-02-18T23:03:54.594Z,4.40
2018-02-18T23:06:22.579Z,4.10
2018-02-18T23:08:51.221Z,4.20
2018-02-18T23:11:21.051Z,4.00
2018-02-18T23:13:49.792Z,4.30
2018-02-18T23:16:19.343Z,4.40
2018-02-18T23:18:49.362Z,4.10
2018-02-18T23:21:18.005Z,4.40
2018-02-18T23:23:46.064Z,4.17
2018-02-18T23:26:13.996Z,4.13
2018-02-18T23:28:42.853Z,5.20
2018-02-18T23:31:11.442Z,4.23
2018-02-18T23:33:39.232Z,5.37
2018-02-18T23:36:09.027Z,5.00
2018-02-18T23:38:42.232Z,4.97
2018-02-18T23:41:10.529Z,5.20
2018-02-18T23:43:38.342Z,4.70
2018-02-18T23:46:06.168Z,4.70
2018-02-18T23:48:33.965Z,4.60
2018-02-18T23:51:01.831Z,4.40
2018-02-18T23:53:29.695Z,5.20
2018-02-18T23:55:57.509Z,4.80
2018-02-18T23:58:26.122Z,5.27
